createdAt,value
2022-10-25T00:00:43.390Z,0.00
2022-10-25T00:01:43.465Z,0.00
2022-10-25T00:02:43.474Z,0.00
2022-10-25T00:03:43.367Z,0.00
2022-10-25T00:04:43.343Z,0.00
2022-10-25T00:05:43.315Z,0.00
2022-10-25T00:06:43.315Z,0.00
2022-10-25T00:07:43.498Z,0.00
2022-10-25T00:08:43.297Z,0.00
2022-10-25T00:09:43.278Z,0.00
2022-10-25T00:10:43.271Z,0.00
2022-10-25T00:11:43.256Z,0.00
2022-10-25T00:12:43.246Z,0.00
2022-10-25T00:13:43.279Z,0.00
2022-10-25T00:14:43.202Z,0.00
2022-10-25T00:15:43.219Z,0.00
2022-10-25T00:16:43.190Z,0.00
2022-10-25T00:17:43.399Z,0.00
2022-10-25T00:18:43.205Z,0.00
2022-10-25T00:19:43.147Z,0.00
2022-10-25T00:20:43.161Z,0.00
2022-10-25T00:21:43.136Z,0.00
2022-10-25T00:22:43.303Z,0.00
2022-10-25T00:23:43.174Z,0.00
2022-10-25T00:24:43.115Z,0.00
2022-10-25T00:25:43.092Z,0.00
2022-10-25T00:26:43.087Z,0.00
2022-10-25T00:27:43.078Z,0.00
2022-10-25T00:28:43.121Z,0.00
2022-10-25T00:29:43.065Z,0.00
2022-10-25T00:30:43.058Z,0.00
2022-10-25T00:31:43.034Z,0.00
2022-10-25T00:32:43.027Z,0.00
2022-10-25T00:33:43.065Z,0.00
2022-10-25T00:34:42.997Z,0.00
2022-10-25T00:35:42.968Z,0.00
2022-10-25T00:36:42.971Z,0.00
2022-10-25T00:38:42.989Z,0.00
2022-10-25T00:39:42.937Z,0.00
2022-10-25T00:40:42.918Z,0.00
2022-10-25T00:41:42.957Z,0.00
2022-10-25T00:42:42.903Z,0.00
2022-10-25T00:43:42.930Z,0.00
2022-10-25T00:44:42.873Z,0.00
2022-10-25T00:45:42.866Z,0.00
2022-10-25T00:46:42.861Z,0.00
2022-10-25T00:47:42.829Z,0.00
2022-10-25T00:48:42.865Z,0.00
2022-10-25T00:49:42.819Z,0.00
2022-10-25T00:50:42.813Z,0.00
2022-10-25T00:51:42.798Z,0.00
2022-10-25T00:52:42.780Z,0.00
2022-10-25T00:53:42.820Z,0.00
2022-10-25T00:54:42.773Z,0.00
2022-10-25T00:55:42.767Z,0.00
2022-10-25T00:56:42.738Z,0.00
2022-10-25T00:57:42.735Z,0.00
2022-10-25T00:58:42.767Z,0.00
2022-10-25T00:59:42.706Z,0.00
2022-10-25T01:00:42.710Z,0.00
2022-10-25T01:01:42.745Z,0.00
2022-10-25T01:02:42.725Z,0.00
2022-10-25T01:03:42.720Z,0.00
2022-10-25T01:04:42.636Z,0.00
2022-10-25T01:05:42.656Z,0.00
2022-10-25T01:06:42.616Z,0.00
2022-10-25T01:07:42.638Z,0.00
2022-10-25T01:08:42.645Z,0.00
2022-10-25T01:09:42.596Z,0.00
2022-10-25T01:10:42.584Z,0.00
2022-10-25T01:11:42.579Z,0.00
2022-10-25T01:12:42.556Z,0.00
2022-10-25T01:13:42.597Z,0.00
2022-10-25T01:14:42.525Z,0.00
2022-10-25T01:15:42.520Z,0.00
2022-10-25T01:16:42.515Z,0.00
2022-10-25T01:17:42.492Z,0.00
2022-10-25T01:18:42.521Z,0.00
2022-10-25T01:19:42.472Z,0.00
2022-10-25T01:20:42.465Z,0.00
2022-10-25T01:21:42.449Z,0.00
2022-10-25T01:22:42.456Z,0.00
2022-10-25T01:23:42.475Z,0.00
2022-10-25T01:24:42.416Z,0.00
2022-10-25T01:25:42.410Z,0.00
2022-10-25T01:26:42.425Z,0.00
2022-10-25T01:27:42.389Z,0.00
2022-10-25T01:28:42.427Z,0.00
2022-10-25T01:29:42.359Z,0.00
2022-10-25T01:30:42.355Z,0.00
2022-10-25T01:31:42.345Z,0.00
2022-10-25T01:32:42.344Z,0.00
2022-10-25T01:33:42.390Z,0.00
2022-10-25T01:34:42.315Z,0.00
2022-10-25T01:35:42.288Z,0.00
2022-10-25T01:36:42.284Z,0.00
2022-10-25T01:37:42.280Z,0.00
2022-10-25T01:38:42.307Z,0.00
2022-10-25T01:39:42.226Z,0.00
2022-10-25T01:40:42.238Z,0.00
2022-10-25T01:41:42.210Z,0.00
2022-10-25T01:42:42.219Z,0.00
2022-10-25T01:43:42.249Z,0.00
2022-10-25T01:44:42.203Z,0.00
2022-10-25T01:45:42.180Z,0.00
2022-10-25T01:46:42.147Z,0.00
2022-10-25T01:47:42.131Z,0.00
2022-10-25T01:48:42.171Z,0.00
2022-10-25T01:49:42.109Z,0.00
2022-10-25T01:50:42.108Z,0.00
2022-10-25T01:51:42.115Z,0.00
2022-10-25T01:52:42.129Z,0.00
2022-10-25T01:53:42.125Z,0.00
2022-10-25T01:54:42.073Z,0.00
2022-10-25T01:55:42.058Z,0.00
2022-10-25T01:56:42.058Z,0.00
2022-10-25T01:57:42.026Z,0.00
2022-10-25T01:58:42.079Z,0.00
2022-10-25T01:59:42.013Z,0.00
2022-10-25T02:00:42.023Z,0.00
2022-10-25T02:01:42.168Z,0.00
2022-10-25T02:02:41.977Z,0.00
2022-10-25T02:03:42.004Z,0.00
2022-10-25T02:04:41.955Z,0.00
2022-10-25T02:05:41.933Z,0.00
2022-10-25T02:06:41.930Z,0.00
2022-10-25T02:07:41.909Z,0.00
2022-10-25T02:08:41.942Z,0.00
2022-10-25T02:09:41.896Z,0.00
2022-10-25T02:10:41.876Z,0.00
2022-10-25T02:11:41.871Z,0.00
2022-10-25T02:12:41.889Z,0.00
2022-10-25T02:13:41.889Z,0.00
2022-10-25T02:14:41.835Z,0.00
2022-10-25T02:15:41.810Z,0.00
2022-10-25T02:16:41.816Z,0.00
2022-10-25T02:17:41.784Z,0.00
2022-10-25T02:18:41.822Z,0.00
2022-10-25T02:19:41.755Z,0.00
2022-10-25T02:20:44.413Z,0.00
2022-10-25T02:21:42.736Z,0.00
2022-10-25T02:22:41.741Z,0.00
2022-10-25T02:23:41.769Z,0.00
2022-10-25T02:24:41.710Z,0.00
2022-10-25T02:25:41.707Z,0.00
2022-10-25T02:26:41.702Z,0.00
2022-10-25T02:27:41.692Z,0.00
2022-10-25T02:28:41.709Z,0.00
2022-10-25T02:29:41.648Z,0.00
2022-10-25T02:30:41.651Z,0.00
2022-10-25T02:31:41.628Z,0.00
2022-10-25T02:32:41.662Z,0.00
2022-10-25T02:33:41.662Z,0.00
2022-10-25T02:34:41.590Z,0.00
2022-10-25T02:35:41.597Z,0.00
2022-10-25T02:36:41.570Z,0.00
2022-10-25T02:37:41.573Z,0.00
2022-10-25T02:38:41.599Z,0.00
2022-10-25T02:39:41.526Z,0.00
2022-10-25T02:40:41.530Z,0.00
2022-10-25T02:41:41.499Z,0.00
2022-10-25T02:42:41.528Z,0.00
2022-10-25T02:43:41.549Z,0.00
2022-10-25T02:44:41.521Z,0.00
2022-10-25T02:45:41.470Z,0.00
2022-10-25T02:46:41.453Z,0.00
2022-10-25T02:47:41.449Z,0.00
2022-10-25T02:48:41.468Z,0.00
2022-10-25T02:49:41.408Z,0.00
2022-10-25T02:50:41.428Z,0.00
2022-10-25T02:51:41.481Z,0.00
2022-10-25T02:52:41.411Z,0.00
2022-10-25T02:53:41.426Z,0.00
2022-10-25T02:54:41.358Z,0.00
2022-10-25T02:55:41.357Z,0.00
2022-10-25T02:56:41.338Z,0.00
2022-10-25T02:57:41.343Z,0.00
2022-10-25T02:58:41.377Z,0.00
2022-10-25T02:59:41.296Z,0.00
2022-10-25T03:00:41.369Z,0.00
2022-10-25T03:01:41.323Z,0.00
2022-10-25T03:02:41.292Z,0.00
2022-10-25T03:03:41.313Z,0.00
2022-10-25T03:04:41.258Z,0.00
2022-10-25T03:05:41.240Z,0.00
2022-10-25T03:06:41.227Z,0.00
2022-10-25T03:07:41.211Z,0.00
2022-10-25T03:08:41.256Z,0.00
2022-10-25T03:09:41.193Z,0.00
2022-10-25T03:10:41.183Z,0.00
2022-10-25T03:11:41.169Z,0.00
2022-10-25T03:12:41.166Z,0.00
2022-10-25T03:13:41.186Z,0.00
2022-10-25T03:14:41.138Z,0.00
2022-10-25T03:15:41.116Z,0.00
2022-10-25T03:16:41.153Z,0.00
2022-10-25T03:17:41.087Z,0.00
2022-10-25T03:18:41.117Z,0.00
2022-10-25T03:19:41.062Z,0.00
2022-10-25T03:20:41.083Z,0.00
2022-10-25T03:21:41.983Z,0.00
2022-10-25T03:22:41.057Z,0.00
2022-10-25T03:23:41.066Z,0.00
2022-10-25T03:24:41.021Z,0.00
2022-10-25T03:25:40.999Z,0.00
2022-10-25T03:26:40.997Z,0.00
2022-10-25T03:27:40.973Z,0.00
2022-10-25T03:28:40.974Z,0.00
2022-10-25T03:29:41.012Z,0.00
2022-10-25T03:30:40.952Z,0.00
2022-10-25T03:31:40.927Z,0.00
2022-10-25T03:32:40.927Z,0.00
2022-10-25T03:33:40.916Z,0.00
2022-10-25T03:34:40.955Z,0.00
2022-10-25T03:35:40.881Z,0.00
2022-10-25T03:36:40.905Z,0.00
2022-10-25T03:37:40.854Z,0.00
2022-10-25T03:38:40.859Z,0.00
2022-10-25T03:39:40.899Z,0.00
2022-10-25T03:40:40.837Z,0.00
2022-10-25T03:41:40.814Z,0.00
2022-10-25T03:42:40.820Z,0.00
2022-10-25T03:43:40.799Z,0.00
2022-10-25T03:44:40.827Z,0.00
2022-10-25T03:45:40.777Z,0.00
2022-10-25T03:46:40.753Z,0.00
2022-10-25T03:47:40.734Z,0.00
2022-10-25T03:48:40.743Z,0.00
2022-10-25T03:49:40.748Z,0.00
2022-10-25T03:50:40.694Z,0.00
2022-10-25T03:51:40.687Z,0.00
2022-10-25T03:52:40.677Z,0.00
2022-10-25T03:53:40.735Z,0.00
2022-10-25T03:54:40.704Z,0.00
2022-10-25T03:55:40.658Z,0.00
2022-10-25T03:56:40.633Z,0.00
2022-10-25T03:57:40.633Z,0.00
2022-10-25T03:58:40.621Z,0.00
2022-10-25T03:59:40.658Z,0.00
2022-10-25T04:00:40.625Z,0.00
2022-10-25T04:01:40.654Z,0.00
2022-10-25T04:02:40.576Z,0.00
2022-10-25T04:03:40.558Z,0.00
2022-10-25T04:04:40.594Z,0.00
2022-10-25T04:05:40.556Z,0.00
2022-10-25T04:06:40.513Z,0.00
2022-10-25T04:07:40.519Z,0.00
2022-10-25T04:08:40.514Z,0.00
2022-10-25T04:09:40.534Z,0.00
2022-10-25T04:10:40.485Z,0.00
2022-10-25T04:11:40.478Z,0.00
2022-10-25T04:12:40.488Z,0.00
2022-10-25T04:13:40.453Z,0.00
2022-10-25T04:14:40.480Z,0.00
2022-10-25T04:15:40.402Z,0.00
2022-10-25T04:16:40.417Z,0.00
2022-10-25T04:17:40.400Z,0.00
2022-10-25T04:18:40.391Z,0.00
2022-10-25T04:19:40.406Z,0.00
2022-10-25T04:20:40.353Z,0.00
2022-10-25T04:21:40.367Z,0.00
2022-10-25T04:22:40.357Z,0.00
2022-10-25T04:23:40.334Z,0.00
2022-10-25T04:24:40.374Z,0.00
2022-10-25T04:25:40.311Z,0.00
2022-10-25T04:26:40.299Z,0.00
2022-10-25T04:27:40.298Z,0.00
2022-10-25T04:28:40.284Z,0.00
2022-10-25T04:29:40.303Z,0.00
2022-10-25T04:30:40.260Z,0.00
2022-10-25T04:31:40.233Z,0.00
2022-10-25T04:32:40.221Z,0.00
2022-10-25T04:33:40.996Z,0.00
2022-10-25T04:34:40.254Z,0.00
2022-10-25T04:35:40.198Z,0.00
2022-10-25T04:36:40.184Z,0.00
2022-10-25T04:37:40.180Z,0.00
2022-10-25T04:38:40.156Z,0.00
2022-10-25T04:39:40.193Z,0.00
2022-10-25T04:40:40.139Z,0.00
2022-10-25T04:41:40.118Z,0.00
2022-10-25T04:42:40.127Z,0.00
2022-10-25T04:43:40.107Z,0.00
2022-10-25T04:44:40.130Z,0.00
2022-10-25T04:45:40.078Z,0.00
2022-10-25T04:46:40.085Z,0.00
2022-10-25T04:47:40.057Z,0.00
2022-10-25T04:48:40.039Z,0.00
2022-10-25T04:49:40.084Z,0.00
2022-10-25T04:50:40.014Z,0.00
2022-10-25T04:51:40.035Z,0.00
2022-10-25T04:52:39.988Z,0.00
2022-10-25T04:53:39.991Z,0.00
2022-10-25T04:54:40.040Z,0.00
2022-10-25T04:55:39.968Z,0.00
2022-10-25T04:56:39.961Z,0.00
2022-10-25T04:57:39.937Z,0.00
2022-10-25T04:58:39.953Z,0.00
2022-10-25T04:59:39.975Z,0.00
2022-10-25T05:00:39.931Z,0.00
2022-10-25T05:01:40.004Z,0.00
2022-10-25T05:02:39.924Z,0.00
2022-10-25T05:03:39.886Z,0.00
2022-10-25T05:04:39.919Z,0.00
2022-10-25T05:05:39.869Z,0.00
2022-10-25T05:06:39.876Z,0.00
2022-10-25T05:07:39.843Z,0.00
2022-10-25T05:08:39.822Z,0.00
2022-10-25T05:09:41.703Z,0.00
2022-10-25T05:10:40.798Z,0.00
2022-10-25T05:11:39.812Z,0.00
2022-10-25T05:12:39.792Z,0.00
2022-10-25T05:13:39.758Z,0.00
2022-10-25T05:14:39.800Z,0.00
2022-10-25T05:15:39.744Z,0.00
2022-10-25T05:16:39.721Z,0.00
2022-10-25T05:17:39.728Z,0.00
2022-10-25T05:18:39.695Z,0.00
2022-10-25T05:19:39.733Z,0.00
2022-10-25T05:20:39.671Z,0.00
2022-10-25T05:21:39.648Z,0.00
2022-10-25T05:22:39.653Z,0.00
2022-10-25T05:23:39.628Z,0.00
2022-10-25T05:24:39.675Z,0.00
2022-10-25T05:25:39.619Z,0.00
2022-10-25T05:26:39.624Z,0.00
2022-10-25T05:27:39.598Z,0.00
2022-10-25T05:28:39.577Z,0.00
2022-10-25T05:29:39.631Z,0.00
2022-10-25T05:30:39.562Z,0.00
2022-10-25T05:31:39.556Z,5.62
2022-10-25T05:32:39.557Z,5.62
2022-10-25T05:33:39.517Z,5.62
2022-10-25T05:34:39.573Z,5.62
2022-10-25T05:35:39.509Z,5.62
2022-10-25T05:36:39.503Z,5.62
2022-10-25T05:37:39.485Z,11.25
2022-10-25T05:38:39.491Z,11.25
2022-10-25T05:39:39.511Z,11.25
2022-10-25T05:40:39.434Z,11.25
2022-10-25T05:41:39.448Z,16.88
2022-10-25T05:42:39.425Z,16.88
2022-10-25T05:43:39.429Z,16.88
2022-10-25T05:44:39.445Z,22.50
2022-10-25T05:45:39.400Z,22.50
2022-10-25T05:46:39.376Z,22.50
2022-10-25T05:47:39.376Z,28.12
2022-10-25T05:48:40.259Z,28.12
2022-10-25T05:49:39.396Z,28.12
2022-10-25T05:50:39.358Z,33.75
2022-10-25T05:51:39.378Z,33.75
2022-10-25T05:52:39.294Z,39.38
2022-10-25T05:53:39.300Z,39.38
2022-10-25T05:54:39.349Z,45.00
2022-10-25T05:55:39.293Z,45.00
2022-10-25T05:56:39.254Z,45.00
2022-10-25T05:57:39.263Z,50.62
2022-10-25T05:58:39.233Z,56.25
2022-10-25T05:59:39.284Z,61.88
2022-10-25T06:00:39.265Z,67.50
2022-10-25T06:01:39.475Z,73.12
2022-10-25T06:02:39.199Z,78.75
2022-10-25T06:03:39.171Z,84.38
2022-10-25T06:04:39.212Z,84.38
2022-10-25T06:05:39.182Z,90.00
2022-10-25T06:06:39.144Z,95.62
2022-10-25T06:07:39.156Z,95.62
2022-10-25T06:08:39.113Z,101.25
2022-10-25T06:09:39.152Z,101.25
2022-10-25T06:10:39.139Z,106.88
2022-10-25T06:11:39.103Z,112.50
2022-10-25T06:12:39.077Z,112.50
2022-10-25T06:13:39.070Z,118.12
2022-10-25T06:14:39.093Z,118.12
2022-10-25T06:15:39.038Z,118.12
2022-10-25T06:16:39.049Z,118.12
2022-10-25T06:17:39.015Z,123.75
2022-10-25T06:18:39.025Z,129.38
2022-10-25T06:19:39.059Z,123.75
2022-10-25T06:20:38.976Z,123.75
2022-10-25T06:21:38.972Z,129.38
2022-10-25T06:22:38.940Z,140.62
2022-10-25T06:23:38.957Z,157.50
2022-10-25T06:24:38.991Z,151.88
2022-10-25T06:25:38.939Z,146.25
2022-10-25T06:26:38.918Z,140.62
2022-10-25T06:27:38.900Z,151.88
2022-10-25T06:28:38.914Z,168.75
2022-10-25T06:29:38.931Z,196.88
2022-10-25T06:30:38.881Z,213.75
2022-10-25T06:31:38.871Z,219.38
2022-10-25T06:32:38.863Z,219.38
2022-10-25T06:33:38.877Z,219.38
2022-10-25T06:34:38.868Z,219.38
2022-10-25T06:35:38.817Z,225.00
2022-10-25T06:36:38.783Z,236.25
2022-10-25T06:37:38.802Z,241.88
2022-10-25T06:38:38.756Z,241.88
2022-10-25T06:39:38.820Z,236.25
2022-10-25T06:40:38.763Z,236.25
2022-10-25T06:41:38.741Z,230.62
2022-10-25T06:42:38.759Z,230.62
2022-10-25T06:43:38.735Z,225.00
2022-10-25T06:44:38.765Z,225.00
2022-10-25T06:45:38.700Z,225.00
2022-10-25T06:47:04.357Z,236.25
2022-10-25T06:47:39.680Z,247.50
2022-10-25T06:48:38.942Z,264.38
2022-10-25T06:49:38.693Z,275.62
2022-10-25T06:50:38.631Z,281.25
2022-10-25T06:51:38.612Z,275.62
2022-10-25T06:52:38.622Z,286.88
2022-10-25T06:53:38.608Z,292.50
2022-10-25T06:54:38.632Z,298.12
2022-10-25T06:55:38.585Z,298.12
2022-10-25T06:56:38.569Z,292.50
2022-10-25T06:57:38.560Z,292.50
2022-10-25T06:58:38.547Z,292.50
2022-10-25T06:59:38.579Z,286.88
2022-10-25T07:00:38.518Z,275.62
2022-10-25T07:01:38.605Z,275.62
2022-10-25T07:02:38.493Z,275.62
2022-10-25T07:03:38.503Z,275.62
2022-10-25T07:04:38.537Z,292.50
2022-10-25T07:05:38.467Z,320.62
2022-10-25T07:06:38.467Z,309.38
2022-10-25T07:07:38.448Z,320.62
2022-10-25T07:08:38.441Z,343.12
2022-10-25T07:09:38.458Z,371.25
2022-10-25T07:10:38.429Z,433.12
2022-10-25T07:11:38.429Z,534.38
2022-10-25T07:12:38.378Z,641.25
2022-10-25T07:13:38.379Z,528.75
2022-10-25T07:14:38.413Z,601.88
2022-10-25T07:15:41.315Z,697.50
2022-10-25T07:16:38.347Z,680.62
2022-10-25T07:17:38.337Z,720.00
2022-10-25T07:18:38.318Z,742.50
2022-10-25T07:19:38.358Z,759.38
2022-10-25T07:20:38.293Z,748.12
2022-10-25T07:21:38.272Z,742.50
2022-10-25T07:22:38.282Z,680.62
2022-10-25T07:23:38.272Z,680.62
2022-10-25T07:24:38.299Z,500.62
2022-10-25T07:25:38.253Z,466.88
2022-10-25T07:26:38.228Z,444.38
2022-10-25T07:27:38.242Z,433.12
2022-10-25T07:28:38.212Z,450.00
2022-10-25T07:29:38.250Z,478.12
2022-10-25T07:30:38.182Z,489.38
2022-10-25T07:31:38.152Z,483.75
2022-10-25T07:32:41.577Z,478.12
2022-10-25T07:33:38.136Z,483.75
2022-10-25T07:34:38.171Z,495.00
2022-10-25T07:35:46.740Z,528.75
2022-10-25T07:36:39.114Z,556.88
2022-10-25T07:37:38.098Z,568.12
2022-10-25T07:38:38.086Z,551.25
2022-10-25T07:39:38.106Z,540.00
2022-10-25T07:40:38.047Z,523.12
2022-10-25T07:41:38.036Z,500.62
2022-10-25T07:42:38.046Z,500.62
2022-10-25T07:43:38.016Z,506.25
2022-10-25T07:44:38.114Z,523.12
2022-10-25T07:45:38.008Z,511.88
2022-10-25T07:46:37.985Z,495.00
2022-10-25T07:47:37.992Z,483.75
2022-10-25T07:48:37.980Z,472.50
2022-10-25T07:49:38.006Z,466.88
2022-10-25T07:50:37.939Z,466.88
2022-10-25T07:51:37.911Z,472.50
2022-10-25T07:52:37.923Z,478.12
2022-10-25T07:53:37.905Z,472.50
2022-10-25T07:54:37.980Z,438.75
2022-10-25T07:55:37.946Z,399.38
2022-10-25T07:56:37.855Z,388.12
2022-10-25T07:57:37.872Z,399.38
2022-10-25T07:58:37.844Z,399.38
2022-10-25T07:59:37.879Z,388.12
2022-10-25T08:00:37.812Z,376.88
2022-10-25T08:01:37.904Z,371.25
2022-10-25T08:02:37.842Z,382.50
2022-10-25T08:03:37.811Z,421.88
2022-10-25T08:04:37.854Z,466.88
2022-10-25T08:05:37.762Z,500.62
2022-10-25T08:06:37.769Z,517.50
2022-10-25T08:07:37.735Z,506.25
2022-10-25T08:08:37.739Z,455.62
2022-10-25T08:09:38.788Z,461.25
2022-10-25T08:10:37.696Z,399.38
2022-10-25T08:11:37.679Z,399.38
2022-10-25T08:12:37.675Z,433.12
2022-10-25T08:13:37.676Z,478.12
2022-10-25T08:14:40.771Z,523.12
2022-10-25T08:15:37.649Z,528.75
2022-10-25T08:16:37.637Z,517.50
2022-10-25T08:17:37.623Z,517.50
2022-10-25T08:18:37.620Z,534.38
2022-10-25T08:19:37.676Z,551.25
2022-10-25T08:21:01.168Z,545.62
2022-10-25T08:21:38.561Z,534.38
2022-10-25T08:22:37.573Z,540.00
2022-10-25T08:23:37.548Z,551.25
2022-10-25T08:24:37.599Z,714.38
2022-10-25T08:25:37.547Z,703.12
2022-10-25T08:26:37.521Z,613.12
2022-10-25T08:27:37.523Z,596.25
2022-10-25T08:28:37.548Z,551.25
2022-10-25T08:29:37.506Z,506.25
2022-10-25T08:30:37.475Z,495.00
2022-10-25T08:31:37.482Z,528.75
2022-10-25T08:32:37.453Z,590.62
2022-10-25T08:33:37.505Z,624.38
2022-10-25T08:34:37.482Z,613.12
2022-10-25T08:35:37.416Z,590.62
2022-10-25T08:36:37.415Z,556.88
2022-10-25T08:37:37.406Z,540.00
2022-10-25T08:38:37.413Z,528.75
2022-10-25T08:39:37.375Z,540.00
2022-10-25T08:40:37.346Z,590.62
2022-10-25T08:41:37.359Z,675.00
2022-10-25T08:42:37.355Z,787.50
2022-10-25T08:43:37.373Z,866.25
2022-10-25T08:44:37.307Z,967.50
2022-10-25T08:45:37.290Z,731.25
2022-10-25T08:46:37.297Z,630.00
2022-10-25T08:47:37.295Z,601.88
2022-10-25T08:48:37.292Z,585.00
2022-10-25T08:49:37.257Z,568.12
2022-10-25T08:50:37.252Z,545.62
2022-10-25T08:51:37.253Z,523.12
2022-10-25T08:52:37.220Z,556.88
2022-10-25T08:53:37.284Z,804.38
2022-10-25T08:54:37.187Z,686.25
2022-10-25T08:55:41.725Z,731.25
2022-10-25T08:56:46.649Z,894.38
2022-10-25T08:57:38.172Z,945.00
2022-10-25T08:58:37.213Z,1029.38
2022-10-25T08:59:37.144Z,759.38
2022-10-25T09:00:37.154Z,781.88
2022-10-25T09:01:37.265Z,1366.88
2022-10-25T09:02:37.115Z,883.12
2022-10-25T09:03:37.213Z,691.88
2022-10-25T09:04:37.081Z,686.25
2022-10-25T09:05:37.085Z,675.00
2022-10-25T09:06:37.043Z,675.00
2022-10-25T09:07:38.449Z,759.38
2022-10-25T09:08:37.065Z,770.62
2022-10-25T09:09:37.022Z,815.62
2022-10-25T09:10:37.008Z,849.38
2022-10-25T09:11:37.037Z,905.62
2022-10-25T09:12:37.002Z,916.88
2022-10-25T09:13:37.036Z,1012.50
2022-10-25T09:14:36.974Z,1051.88
2022-10-25T09:15:40.378Z,1029.38
2022-10-25T09:16:37.952Z,973.12
2022-10-25T09:17:36.943Z,939.38
2022-10-25T09:18:36.907Z,984.38
2022-10-25T09:19:36.955Z,1006.88
2022-10-25T09:20:36.896Z,922.50
2022-10-25T09:21:36.894Z,1012.50
2022-10-25T09:22:36.862Z,1248.75
2022-10-25T09:23:36.883Z,1119.38
2022-10-25T09:24:36.913Z,781.88
2022-10-25T09:25:36.835Z,798.75
2022-10-25T09:26:36.830Z,826.88
2022-10-25T09:27:36.823Z,860.62
2022-10-25T09:28:36.841Z,590.62
2022-10-25T09:29:36.864Z,511.88
2022-10-25T09:30:36.793Z,489.38
2022-10-25T09:31:36.763Z,1395.00
2022-10-25T09:32:36.758Z,1794.38
2022-10-25T09:33:36.753Z,1485.00
2022-10-25T09:34:36.797Z,658.12
2022-10-25T09:35:36.746Z,590.62
2022-10-25T09:36:36.704Z,540.00
2022-10-25T09:37:36.684Z,1074.38
2022-10-25T09:38:36.681Z,663.75
2022-10-25T09:39:36.718Z,759.38
2022-10-25T09:40:39.352Z,776.25
2022-10-25T09:41:37.664Z,590.62
2022-10-25T09:42:36.649Z,545.62
2022-10-25T09:43:36.683Z,1130.62
2022-10-25T09:44:36.639Z,1051.88
2022-10-25T09:45:38.598Z,714.38
2022-10-25T09:46:36.626Z,832.50
2022-10-25T09:47:36.620Z,978.75
2022-10-25T09:48:36.624Z,888.75
2022-10-25T09:49:36.577Z,663.75
2022-10-25T09:50:36.545Z,601.88
2022-10-25T09:51:36.555Z,562.50
2022-10-25T09:52:36.535Z,511.88
2022-10-25T09:53:36.576Z,601.88
2022-10-25T09:54:36.524Z,500.62
2022-10-25T09:55:36.490Z,562.50
2022-10-25T09:56:36.497Z,601.88
2022-10-25T09:57:36.468Z,573.75
2022-10-25T09:58:36.529Z,663.75
2022-10-25T09:59:36.457Z,804.38
2022-10-25T10:00:36.467Z,776.25
2022-10-25T10:01:36.533Z,714.38
2022-10-25T10:02:36.525Z,652.50
2022-10-25T10:03:36.454Z,613.12
2022-10-25T10:04:36.417Z,624.38
2022-10-25T10:05:36.393Z,669.38
2022-10-25T10:06:36.406Z,652.50
2022-10-25T10:07:36.393Z,573.75
2022-10-25T10:08:36.394Z,568.12
2022-10-25T10:09:36.329Z,478.12
2022-10-25T10:10:36.335Z,489.38
2022-10-25T10:11:36.310Z,883.12
2022-10-25T10:12:36.332Z,708.75
2022-10-25T10:13:36.354Z,894.38
2022-10-25T10:14:36.271Z,495.00
2022-10-25T10:15:36.297Z,1406.25
2022-10-25T10:16:36.265Z,1451.25
2022-10-25T10:17:36.253Z,1271.25
2022-10-25T10:18:36.299Z,984.38
2022-10-25T10:19:36.222Z,1074.38
2022-10-25T10:20:36.214Z,1035.00
2022-10-25T10:21:36.190Z,1040.62
2022-10-25T10:22:36.225Z,860.62
2022-10-25T10:23:36.239Z,1080.00
2022-10-25T10:24:36.183Z,1040.62
2022-10-25T10:25:36.162Z,810.00
2022-10-25T10:26:36.133Z,798.75
2022-10-25T10:27:36.129Z,883.12
2022-10-25T10:28:36.169Z,804.38
2022-10-25T10:29:36.107Z,1130.62
2022-10-25T10:30:36.102Z,888.75
2022-10-25T10:31:36.083Z,1468.12
2022-10-25T10:32:36.134Z,821.25
2022-10-25T10:33:36.109Z,804.38
2022-10-25T10:34:36.054Z,810.00
2022-10-25T10:35:36.034Z,832.50
2022-10-25T10:36:36.038Z,1203.75
2022-10-25T10:37:36.003Z,1243.12
2022-10-25T10:38:36.045Z,888.75
2022-10-25T10:39:35.982Z,1012.50
2022-10-25T10:40:35.979Z,888.75
2022-10-25T10:41:35.979Z,961.88
2022-10-25T10:42:35.967Z,1181.25
2022-10-25T10:43:36.005Z,1119.38
2022-10-25T10:44:35.943Z,1130.62
2022-10-25T10:45:35.933Z,1327.50
2022-10-25T10:46:35.914Z,1698.75
2022-10-25T10:47:35.898Z,1794.38
2022-10-25T10:48:41.747Z,2227.50
2022-10-25T10:49:36.862Z,1260.00
2022-10-25T10:50:35.861Z,1175.62
2022-10-25T10:51:44.362Z,990.00
2022-10-25T10:52:36.823Z,984.38
2022-10-25T10:53:35.862Z,1265.62
2022-10-25T10:54:35.825Z,1333.12
2022-10-25T10:55:35.815Z,1040.62
2022-10-25T10:56:35.807Z,753.75
2022-10-25T10:57:35.790Z,1018.12
2022-10-25T10:58:35.845Z,1580.62
2022-10-25T10:59:35.794Z,950.62
2022-10-25T11:00:35.826Z,815.62
2022-10-25T11:01:35.878Z,945.00
2022-10-25T11:02:35.915Z,798.75
2022-10-25T11:03:35.714Z,939.38
2022-10-25T11:04:35.745Z,714.38
2022-10-25T11:05:35.698Z,1186.88
2022-10-25T11:06:35.682Z,669.38
2022-10-25T11:07:35.661Z,686.25
2022-10-25T11:08:35.653Z,731.25
2022-10-25T11:09:35.673Z,759.38
2022-10-25T11:10:35.659Z,810.00
2022-10-25T11:11:35.638Z,658.12
2022-10-25T11:12:40.214Z,1963.12
2022-10-25T11:13:36.616Z,1918.12
2022-10-25T11:14:35.629Z,1575.00
2022-10-25T11:15:35.570Z,675.00
2022-10-25T11:16:35.578Z,483.75
2022-10-25T11:17:35.560Z,388.12
2022-10-25T11:18:35.558Z,343.12
2022-10-25T11:19:35.585Z,365.62
2022-10-25T11:20:35.513Z,483.75
2022-10-25T11:21:35.510Z,585.00
2022-10-25T11:22:35.548Z,1012.50
2022-10-25T11:23:35.483Z,826.88
2022-10-25T11:24:35.535Z,776.25
2022-10-25T11:25:35.455Z,765.00
2022-10-25T11:27:46.905Z,703.12
2022-10-25T11:28:46.618Z,663.75
2022-10-25T11:29:46.660Z,804.38
2022-10-25T11:30:46.592Z,995.62
2022-10-25T11:31:46.586Z,945.00
2022-10-25T11:32:50.302Z,928.12
2022-10-25T11:33:47.564Z,871.88
2022-10-25T11:34:46.587Z,843.75
2022-10-25T11:35:46.535Z,832.50
2022-10-25T11:36:46.520Z,905.62
2022-10-25T11:37:46.745Z,871.88
2022-10-25T11:38:46.490Z,894.38
2022-10-25T11:39:48.513Z,1023.75
2022-10-25T11:40:46.460Z,939.38
2022-10-25T11:41:46.443Z,933.75
2022-10-25T11:42:46.646Z,860.62
2022-10-25T11:43:46.449Z,736.88
2022-10-25T11:44:46.600Z,742.50
2022-10-25T11:45:46.414Z,731.25
2022-10-25T11:46:46.411Z,691.88
2022-10-25T11:47:46.392Z,652.50
2022-10-25T11:48:46.371Z,613.12
2022-10-25T11:49:46.421Z,658.12
2022-10-25T11:50:46.367Z,635.62
2022-10-25T11:51:46.365Z,635.62
2022-10-25T11:52:46.583Z,652.50
2022-10-25T11:53:46.303Z,686.25
2022-10-25T11:54:46.355Z,708.75
2022-10-25T11:55:46.290Z,669.38
2022-10-25T11:56:46.313Z,646.88
2022-10-25T11:57:46.271Z,748.12
2022-10-25T11:58:46.281Z,725.62
2022-10-25T11:59:46.302Z,765.00
2022-10-25T12:00:46.275Z,871.88
2022-10-25T12:01:46.283Z,821.25
2022-10-25T12:02:46.828Z,939.38
2022-10-25T12:03:46.210Z,1530.00
2022-10-25T12:04:46.244Z,973.12
2022-10-25T12:05:46.197Z,933.75
2022-10-25T12:06:46.172Z,956.25
2022-10-25T12:07:46.183Z,1006.88
2022-10-25T12:08:46.227Z,1023.75
2022-10-25T12:09:46.168Z,1063.12
2022-10-25T12:11:47.116Z,911.25
2022-10-25T12:12:46.436Z,984.38
2022-10-25T12:13:46.085Z,1248.75
2022-10-25T12:14:46.126Z,2272.50
2022-10-25T12:15:46.094Z,2193.75
2022-10-25T12:16:46.081Z,956.25
2022-10-25T12:17:46.142Z,2058.75
2022-10-25T12:18:46.056Z,1445.62
2022-10-25T12:19:46.066Z,1738.12
2022-10-25T12:20:46.012Z,1440.00
2022-10-25T12:21:46.005Z,1063.12
2022-10-25T12:22:46.404Z,1890.00
2022-10-25T12:23:45.966Z,1580.62
2022-10-25T12:24:46.028Z,1046.25
2022-10-25T12:25:45.970Z,1642.50
2022-10-25T12:26:45.945Z,1614.38
2022-10-25T12:27:45.946Z,1288.12
2022-10-25T12:28:45.936Z,1271.25
2022-10-25T12:29:45.962Z,1096.88
2022-10-25T12:30:45.916Z,1378.12
2022-10-25T12:31:45.886Z,1265.62
2022-10-25T12:32:46.116Z,905.62
2022-10-25T12:33:45.912Z,759.38
2022-10-25T12:34:45.881Z,376.88
2022-10-25T12:35:45.839Z,337.50
2022-10-25T12:36:45.835Z,320.62
2022-10-25T12:37:47.501Z,315.00
2022-10-25T12:38:45.867Z,309.38
2022-10-25T12:39:45.798Z,343.12
2022-10-25T12:40:45.793Z,1462.50
2022-10-25T12:41:45.824Z,1485.00
2022-10-25T12:42:46.066Z,438.75
2022-10-25T12:43:45.785Z,444.38
2022-10-25T12:44:45.746Z,421.88
2022-10-25T12:45:45.746Z,523.12
2022-10-25T12:46:45.744Z,393.75
2022-10-25T12:47:45.709Z,399.38
2022-10-25T12:48:45.746Z,630.00
2022-10-25T12:49:45.689Z,1366.88
2022-10-25T12:50:45.695Z,405.00
2022-10-25T12:51:45.666Z,1316.25